Aeroporto :
LOGIN :

Iscrizione | Disclaimer

   EN    FR    IT 

 










Sommario :    VFR   VFR Marginale   IFR   IFR Intensivo   IFR Molto Intensivo
Visibilità : 
Base nubi : 
>= 8 km
>= 3000ft
5 / 8 km
1000 / 3000 ft
1500m / 5 km
500 / 1000 ft
800 / 1500m
200 / 500 ft
< 800m
< 200 ft
Simboli :   Temporali  Nebbia  Neve Forte  Precipitazioni Forti  Vento > 20 kt
SIGMETs :   Varie  Temporali  Ghiacco  Turbolenza  Onda orograficha  Ceneri Vulcaniche






- Altitudine del aeroporto : 12 ft
- Codice IATA : NCE


LFMN - Nice

ULTIMO METAR :
  • 200705Z 32010KT 9999 OVC053 10/06 Q1013 NOSIG

METARs OBSOLETI :
  • 200630Z 32010KT 9999 FEW015 BKN046 10/06 Q1013 NOSIG
  • 200600Z 33010KT 9999 FEW015 BKN050 10/06 Q1013 NOSIG
  • 200530Z 33010KT 9999 BKN038 10/06 Q1013 NOSIG
  • 200500Z 33010KT 9999 BKN043 10/06 Q1013 NOSIG

TAF TAF LFMN
Valido dal 20 a 03 ore il 21 a 09 ore UTC


200200Z 2003/2109 34010KT 9999 SCT030 BKN060
TEMPO 2005/2009 -RA BKN030
BECMG 2011/2013 22006KT
TEMPO 2014/2020 -RA BKN030
BECMG 2020/2022 34010KT CAVOK
PROB40
TEMPO 2104/2108 -RA BKN030
ATIS : +33 4 93 17 21 16



MetMap, La meteo Aeronautica in un colpo d'occhio ! - Copyright ORBIFLY Dicembre 2007 - Disclaimer

ORBIFLY MET'MAP TEAM :

Programmazione e sviluppo : Alexandra Zaïnal
Concezione e sviluppo : Baudouin d'Aumeries
Co-Programmazione e sviluppo : Marc-Olivier Méhu
Supporto tecnico e logistico : Manuel Goepfert
Aiuto per la traduzione : Arnaldo La Scala

Contatto : metmap@orbifly.com




FONTI E CREDITI :

   NOAA